createdAt,value
2022-10-06T00:00:36.212Z,100636.31
2022-10-06T00:03:08.532Z,100641.84
2022-10-06T00:05:38.173Z,100652.66
2022-10-06T00:08:10.241Z,100645.34
2022-10-06T00:10:40.103Z,100638.97
2022-10-06T00:13:10.441Z,100646.25
2022-10-06T00:15:40.098Z,100640.22
2022-10-06T00:18:12.428Z,100636.16
2022-10-06T00:20:43.497Z,100632.88
2022-10-06T00:23:13.392Z,100629.25
2022-10-06T00:25:42.899Z,100650.53
2022-10-06T00:28:12.537Z,100655.38
2022-10-06T00:30:42.319Z,100664.50
2022-10-06T00:33:17.470Z,100660.50
2022-10-06T00:35:48.134Z,100668.16
2022-10-06T00:38:19.736Z,100668.91
2022-10-06T00:40:50.873Z,100677.28
2022-10-06T00:43:59.593Z,100672.75
2022-10-06T00:46:40.001Z,100674.03
2022-10-06T00:49:17.106Z,100683.47
2022-10-06T00:51:50.283Z,100689.47
2022-10-06T00:54:20.641Z,100691.84
2022-10-06T00:56:50.339Z,100699.19
2022-10-06T00:59:21.667Z,100698.00
2022-10-06T01:01:58.569Z,100698.09
2022-10-06T01:04:35.308Z,100703.19
2022-10-06T01:07:06.054Z,100710.81
2022-10-06T01:09:35.955Z,100712.84
2022-10-06T01:12:08.378Z,100722.84
2022-10-06T01:14:39.931Z,100758.41
2022-10-06T01:17:14.568Z,100795.47
2022-10-06T01:19:53.321Z,100788.41
2022-10-06T01:22:31.154Z,100821.66
2022-10-06T01:25:00.898Z,100826.63
2022-10-06T01:27:33.499Z,100842.03
2022-10-06T01:30:03.972Z,100842.16
2022-10-06T01:32:37.430Z,100870.97
2022-10-06T01:35:08.968Z,100892.91
2022-10-06T01:37:41.134Z,100905.28
2022-10-06T01:40:14.040Z,100889.34
2022-10-06T01:42:43.834Z,100898.91
2022-10-06T01:45:13.902Z,100894.53
2022-10-06T01:47:43.520Z,100897.34
2022-10-06T01:53:26.466Z,100921.19
2022-10-06T01:56:01.009Z,100934.75
2022-10-06T01:58:30.944Z,100941.94
2022-10-06T02:01:00.710Z,100941.16
2022-10-06T02:03:30.367Z,100947.13
2022-10-06T02:05:59.961Z,100962.25
2022-10-06T02:08:32.576Z,100949.09
2022-10-06T02:11:10.144Z,100956.25
2022-10-06T02:13:40.029Z,100955.44
2022-10-06T02:16:11.916Z,100965.78
2022-10-06T02:18:41.639Z,100958.66
2022-10-06T02:21:17.584Z,100950.28
2022-10-06T02:23:49.915Z,100942.72
2022-10-06T02:26:20.741Z,100947.88
2022-10-06T02:28:50.393Z,100949.09
2022-10-06T02:31:20.516Z,100969.75
2022-10-06T02:33:50.048Z,100959.44
2022-10-06T02:36:19.584Z,100963.78
2022-10-06T02:38:51.735Z,100962.59
2022-10-06T02:41:21.338Z,100965.75
2022-10-06T02:43:50.854Z,100978.06
2022-10-06T02:46:20.594Z,100972.50
2022-10-06T02:48:50.215Z,100978.06
2022-10-06T02:51:21.222Z,100984.44
2022-10-06T02:53:54.441Z,100985.25
2022-10-06T02:56:25.907Z,100997.56
2022-10-06T02:58:56.483Z,101007.94
2022-10-06T03:01:28.325Z,101009.50
2022-10-06T03:03:58.124Z,101015.50
2022-10-06T03:06:29.164Z,101008.34
2022-10-06T03:09:02.948Z,101021.06
2022-10-06T03:11:34.203Z,101021.47
2022-10-06T03:14:03.888Z,101023.03
2022-10-06T03:16:36.334Z,101034.16
2022-10-06T03:19:06.356Z,101037.34
2022-10-06T03:21:38.595Z,101044.91
2022-10-06T03:24:11.325Z,101049.66
2022-10-06T03:26:42.701Z,101063.56
2022-10-06T03:29:12.689Z,101069.88
2022-10-06T03:31:43.400Z,101075.44
2022-10-06T03:34:13.581Z,101084.59
2022-10-06T03:36:44.178Z,101088.88
2022-10-06T03:39:16.305Z,101096.00
2022-10-06T03:41:45.928Z,101096.44
2022-10-06T03:44:15.462Z,101107.13
2022-10-06T03:46:45.686Z,101115.88
2022-10-06T03:49:15.236Z,101117.44
2022-10-06T03:51:45.126Z,101119.03
2022-10-06T03:54:17.236Z,101130.91
2022-10-06T03:56:46.811Z,101130.91
2022-10-06T03:59:19.587Z,101124.53
2022-10-06T04:01:50.957Z,101138.41
2022-10-06T04:04:20.519Z,101141.16
2022-10-06T04:06:50.038Z,101143.09
2022-10-06T04:09:22.120Z,101157.00
2022-10-06T04:11:51.877Z,101159.41
2022-10-06T04:14:21.392Z,101160.94
2022-10-06T04:16:52.271Z,101160.94
2022-10-06T04:19:21.907Z,101161.72
2022-10-06T04:21:51.444Z,101170.44
2022-10-06T04:24:23.543Z,101170.41
2022-10-06T04:26:53.122Z,101183.88
2022-10-06T04:29:22.727Z,101179.06
2022-10-06T04:31:52.339Z,101189.38
2022-10-06T04:34:21.842Z,101187.78
2022-10-06T04:36:51.484Z,101190.97
2022-10-06T04:39:23.549Z,101188.13
2022-10-06T04:41:53.050Z,101195.69
2022-10-06T04:44:22.564Z,101195.66
2022-10-06T04:46:52.171Z,101203.56
2022-10-06T04:49:21.687Z,101208.31
2022-10-06T04:51:52.011Z,101221.75
2022-10-06T04:54:24.057Z,101206.22
2022-10-06T04:56:53.636Z,101226.06
2022-10-06T04:59:43.234Z,101224.09
2022-10-06T05:02:12.816Z,101225.56
2022-10-06T05:04:42.539Z,101236.25
2022-10-06T05:07:12.107Z,101246.19
2022-10-06T05:09:44.277Z,101258.91
2022-10-06T05:12:13.897Z,101267.63
2022-10-06T05:14:43.799Z,101265.97
2022-10-06T05:17:13.365Z,101277.78
2022-10-06T05:19:42.832Z,101274.72
2022-10-06T05:22:12.629Z,101291.00
2022-10-06T05:24:44.695Z,101295.41
2022-10-06T05:27:14.181Z,101294.16
2022-10-06T05:29:43.756Z,101310.44
2022-10-06T05:32:13.261Z,101313.53
2022-10-06T05:34:42.818Z,101309.59
2022-10-06T05:37:12.359Z,101307.66
2022-10-06T05:39:44.444Z,101315.19
2022-10-06T05:42:14.057Z,101318.19
2022-10-06T05:44:43.533Z,101324.13
2022-10-06T05:47:13.017Z,101340.47
2022-10-06T05:49:42.512Z,101346.81
2022-10-06T05:52:12.047Z,101354.31
2022-10-06T05:54:44.125Z,101359.19
2022-10-06T05:57:14.055Z,101364.88
2022-10-06T05:59:43.611Z,101383.22
2022-10-06T06:02:13.292Z,101378.50
2022-10-06T06:04:42.911Z,101381.31
2022-10-06T06:07:12.598Z,101391.66
2022-10-06T06:09:44.756Z,101395.78
2022-10-06T06:12:14.366Z,101398.56
2022-10-06T06:14:56.414Z,101402.63
2022-10-06T06:17:25.924Z,101413.00
2022-10-06T06:19:55.387Z,101416.25
2022-10-06T06:22:24.961Z,101420.66
2022-10-06T06:24:57.057Z,101423.34
2022-10-06T06:27:26.647Z,101429.41
2022-10-06T06:29:57.518Z,101433.75
2022-10-06T06:32:28.015Z,101436.94
2022-10-06T06:34:57.514Z,101438.50
2022-10-06T06:37:27.002Z,101443.94
2022-10-06T06:39:59.090Z,101448.00
2022-10-06T06:42:28.592Z,101444.50
2022-10-06T06:44:58.148Z,101455.31
2022-10-06T06:47:27.603Z,101458.84
2022-10-06T06:49:58.861Z,101461.25
2022-10-06T06:52:28.367Z,101471.63
2022-10-06T06:55:00.469Z,101477.97
2022-10-06T06:57:30.007Z,101475.06
2022-10-06T07:00:02.637Z,101483.69
2022-10-06T07:02:32.188Z,101486.56
2022-10-06T07:05:01.727Z,101496.66
2022-10-06T07:07:31.276Z,101502.19
2022-10-06T07:10:03.631Z,101500.72
2022-10-06T07:12:34.216Z,101506.47
2022-10-06T07:15:16.386Z,101503.22
2022-10-06T07:17:58.422Z,101508.22
2022-10-06T07:20:40.499Z,101515.03
2022-10-06T07:23:26.338Z,101524.75
2022-10-06T07:25:58.576Z,101536.25
2022-10-06T07:28:30.863Z,101543.13
2022-10-06T07:31:01.464Z,101536.47
2022-10-06T07:33:32.484Z,101539.69
2022-10-06T07:36:02.047Z,101546.50
2022-10-06T07:38:31.553Z,101560.50
2022-10-06T07:41:20.327Z,101568.09
2022-10-06T07:43:50.452Z,101569.63
2022-10-06T07:46:20.598Z,101579.25
2022-10-06T07:48:51.008Z,101579.44
2022-10-06T07:51:24.337Z,101589.19
2022-10-06T07:53:54.193Z,101583.69
2022-10-06T07:56:26.307Z,101591.56
2022-10-06T07:58:56.203Z,101598.75
2022-10-06T08:01:26.954Z,101608.25
2022-10-06T08:03:57.032Z,101604.44
2022-10-06T08:06:26.742Z,101597.25
2022-10-06T08:08:56.721Z,101604.09
2022-10-06T08:11:29.520Z,101607.72
2022-10-06T08:13:59.041Z,101614.50
2022-10-06T08:16:31.223Z,101604.09
2022-10-06T08:19:02.703Z,101596.50
2022-10-06T08:21:34.607Z,101610.72
2022-10-06T08:24:04.786Z,101617.97
2022-10-06T08:26:36.980Z,101619.22
2022-10-06T08:29:06.584Z,101637.28
2022-10-06T08:31:36.720Z,101635.69
2022-10-06T08:34:11.798Z,101640.06
2022-10-06T08:36:48.253Z,101638.88
2022-10-06T08:39:34.351Z,101643.06
2022-10-06T08:42:06.712Z,101640.50
2022-10-06T08:44:41.966Z,101642.25
2022-10-06T08:47:17.820Z,101659.41
2022-10-06T08:49:49.510Z,101650.06
2022-10-06T08:52:29.487Z,101654.34
2022-10-06T08:55:11.543Z,101660.56
2022-10-06T08:57:59.265Z,101663.63
2022-10-06T09:00:29.758Z,101664.06
2022-10-06T09:02:59.316Z,101661.53
2022-10-06T09:05:31.506Z,101669.91
2022-10-06T09:08:18.693Z,101666.94
2022-10-06T09:11:03.214Z,101673.19
2022-10-06T09:13:41.666Z,101674.72
2022-10-06T09:16:14.307Z,101670.63
2022-10-06T09:19:07.774Z,101671.13
2022-10-06T09:21:43.177Z,101674.16
2022-10-06T09:24:18.225Z,101673.47
2022-10-06T09:29:21.183Z,101674.97
2022-10-06T09:31:51.493Z,101686.72
2022-10-06T09:34:28.161Z,101686.13
2022-10-06T09:37:03.297Z,101690.63
2022-10-06T09:39:36.976Z,101702.22
2022-10-06T09:42:14.183Z,101702.81
2022-10-06T09:44:56.571Z,101705.44
2022-10-06T09:47:44.980Z,101693.22
2022-10-06T09:50:22.264Z,101704.75
2022-10-06T09:53:13.971Z,101704.31
2022-10-06T09:55:52.185Z,101719.09
2022-10-06T09:58:26.236Z,101715.38
2022-10-06T10:01:00.715Z,101712.28
2022-10-06T10:04:01.937Z,101712.75
2022-10-06T10:06:36.619Z,101715.41
2022-10-06T10:09:31.637Z,101742.75
2022-10-06T10:12:31.111Z,101727.13
2022-10-06T10:15:04.384Z,101723.97
2022-10-06T10:17:47.771Z,101719.47
2022-10-06T10:20:34.342Z,101721.16
2022-10-06T10:23:08.341Z,101733.38
2022-10-06T10:26:04.433Z,101740.59
2022-10-06T10:28:59.989Z,101729.69
2022-10-06T10:31:36.506Z,101729.66
2022-10-06T10:34:31.073Z,101739.56
2022-10-06T10:37:06.175Z,101736.09
2022-10-06T10:39:40.573Z,101728.47
2022-10-06T10:42:17.119Z,101730.28
2022-10-06T10:44:56.613Z,101737.00
2022-10-06T10:47:31.393Z,101732.41
2022-10-06T10:50:10.998Z,101749.50
2022-10-06T10:52:45.013Z,101741.22
2022-10-06T10:55:27.219Z,101759.44
2022-10-06T10:57:59.758Z,101759.31
2022-10-06T11:00:35.471Z,101761.25
2022-10-06T11:03:05.402Z,101760.47
2022-10-06T11:06:01.208Z,101749.78
2022-10-06T11:08:40.124Z,101749.34
2022-10-06T11:11:18.790Z,101739.78
2022-10-06T11:13:52.289Z,101738.94
2022-10-06T11:16:34.740Z,101744.84
2022-10-06T11:19:23.446Z,101739.44
2022-10-06T11:22:01.877Z,101727.16
2022-10-06T11:24:39.715Z,101739.75
2022-10-06T11:27:27.172Z,101761.41
2022-10-06T11:30:05.320Z,101751.53
2022-10-06T11:32:47.540Z,101753.16
2022-10-06T11:35:23.824Z,101757.56
2022-10-06T11:38:02.615Z,101765.19
2022-10-06T11:40:43.895Z,101758.16
2022-10-06T11:43:21.008Z,101746.75
2022-10-06T11:46:00.527Z,101751.44
2022-10-06T11:48:32.284Z,101754.72
2022-10-06T11:51:31.496Z,101748.66
2022-10-06T11:54:03.806Z,101763.75
2022-10-06T11:56:42.297Z,101761.09
2022-10-06T11:59:32.346Z,101767.06
2022-10-06T12:02:03.957Z,101766.69
2022-10-06T12:04:33.511Z,101771.34
2022-10-06T12:07:07.382Z,101762.81
2022-10-06T12:09:53.003Z,101765.59
2022-10-06T12:13:05.789Z,101766.94
2022-10-06T12:19:05.694Z,101767.19
2022-10-06T12:21:45.691Z,101756.03
2022-10-06T12:24:30.908Z,101745.91
2022-10-06T12:27:28.820Z,101741.75
2022-10-06T12:30:05.784Z,101743.31
2022-10-06T12:32:52.144Z,101736.81
2022-10-06T12:35:32.865Z,101739.41
2022-10-06T12:38:05.098Z,101746.41
2022-10-06T12:40:52.021Z,101744.38
2022-10-06T12:44:00.903Z,101746.41
2022-10-06T12:46:41.708Z,101746.47
2022-10-06T12:49:37.186Z,101749.88
2022-10-06T12:52:23.047Z,101747.00
2022-10-06T12:55:11.345Z,101749.34
2022-10-06T12:57:48.411Z,101749.03
2022-10-06T13:00:34.882Z,101758.81
2022-10-06T13:03:09.872Z,101763.59
2022-10-06T13:05:39.934Z,101769.19
2022-10-06T13:08:23.016Z,101763.34
2022-10-06T13:10:52.876Z,101756.41
2022-10-06T13:13:25.361Z,101757.00
2022-10-06T13:16:00.696Z,101752.66
2022-10-06T13:18:33.163Z,101753.44
2022-10-06T13:21:03.807Z,101748.00
2022-10-06T13:23:35.331Z,101750.72
2022-10-06T13:26:07.214Z,101748.25
2022-10-06T13:28:49.429Z,101749.25
2022-10-06T13:31:24.725Z,101749.97
2022-10-06T13:34:01.158Z,101750.72
2022-10-06T13:36:32.875Z,101755.19
2022-10-06T13:39:03.397Z,101763.03
2022-10-06T13:41:36.235Z,101770.88
2022-10-06T13:44:27.324Z,101766.19
2022-10-06T13:46:59.819Z,101769.81
2022-10-06T13:49:36.531Z,101760.47
2022-10-06T13:52:12.932Z,101763.13
2022-10-06T13:54:49.096Z,101764.06
2022-10-06T13:57:37.665Z,101769.41
2022-10-06T14:00:20.223Z,101764.50
2022-10-06T14:02:52.112Z,101760.84
2022-10-06T14:05:37.422Z,101762.00
2022-10-06T14:08:20.045Z,101768.59
2022-10-06T14:10:52.302Z,101769.41
2022-10-06T14:13:24.407Z,101773.25
2022-10-06T14:15:56.406Z,101769.31
2022-10-06T14:18:31.159Z,101766.03
2022-10-06T14:21:19.997Z,101773.41
2022-10-06T14:23:54.197Z,101764.56
2022-10-06T14:26:27.710Z,101763.88
2022-10-06T14:28:57.578Z,101774.09
2022-10-06T14:31:29.234Z,101763.66
2022-10-06T14:33:59.831Z,101762.31
2022-10-06T14:36:34.558Z,101765.09
2022-10-06T14:39:05.352Z,101768.13
2022-10-06T14:41:35.477Z,101766.00
2022-10-06T14:44:07.122Z,101771.06
2022-10-06T14:46:36.850Z,101764.47
2022-10-06T14:49:08.467Z,101765.53
2022-10-06T14:51:42.001Z,101769.00
2022-10-06T14:54:12.662Z,101765.66
2022-10-06T14:56:43.484Z,101770.72
2022-10-06T14:59:17.115Z,101764.41
2022-10-06T15:01:47.916Z,101758.53
2022-10-06T15:04:19.405Z,101773.72
2022-10-06T15:07:03.955Z,101770.94
2022-10-06T15:09:34.157Z,101763.97
2022-10-06T15:12:03.746Z,101765.53
2022-10-06T15:14:35.068Z,101771.25
2022-10-06T15:17:04.687Z,101768.69
2022-10-06T15:19:34.302Z,101769.97
2022-10-06T15:22:09.031Z,101770.16
2022-10-06T15:24:38.578Z,101785.13
2022-10-06T15:27:24.676Z,101785.53
2022-10-06T15:29:56.101Z,101775.97
2022-10-06T15:32:25.782Z,101773.63
2022-10-06T15:34:55.309Z,101768.03
2022-10-06T15:37:27.503Z,101776.47
2022-10-06T15:39:57.639Z,101778.47
2022-10-06T15:42:27.403Z,101787.28
2022-10-06T15:44:56.955Z,101787.25
2022-10-06T15:47:26.840Z,101784.88
2022-10-06T15:49:56.346Z,101783.66
2022-10-06T15:52:33.906Z,101782.84
2022-10-06T15:55:03.525Z,101796.47
2022-10-06T15:57:33.128Z,101794.03
2022-10-06T16:00:02.666Z,101781.59
2022-10-06T16:02:35.621Z,101786.44
2022-10-06T16:05:29.655Z,101790.81
2022-10-06T16:08:01.876Z,101779.59
2022-10-06T16:10:31.369Z,101782.34
2022-10-06T16:13:00.901Z,101787.50
2022-10-06T16:15:30.388Z,101786.28
2022-10-06T16:17:59.909Z,101785.09
2022-10-06T16:20:29.389Z,101792.22
2022-10-06T16:23:01.440Z,101788.97
2022-10-06T16:25:30.975Z,101796.56
